createdAt,value
2016-11-28T00:00:19.589Z,0
2016-11-28T00:02:19.621Z,0
2016-11-28T00:03:19.630Z,0
2016-11-28T00:04:19.643Z,0
2016-11-28T00:06:19.679Z,0
2016-11-28T00:07:19.723Z,0
2016-11-28T00:08:34.634Z,0
2016-11-28T00:10:34.668Z,0
2016-11-28T00:11:19.752Z,0
2016-11-28T00:12:19.781Z,0
2016-11-28T00:13:19.792Z,0
2016-11-28T00:14:19.803Z,0
2016-11-28T00:16:19.839Z,0
2016-11-28T00:17:19.857Z,0
2016-11-28T00:18:19.862Z,0
2016-11-28T00:19:19.884Z,0
2016-11-28T00:20:19.901Z,0
2016-11-28T00:21:20.219Z,0
2016-11-28T00:24:34.882Z,0
2016-11-28T00:25:19.965Z,0
2016-11-28T00:26:34.908Z,0
2016-11-28T00:27:34.977Z,0
2016-11-28T00:28:20.017Z,0
2016-11-28T00:29:20.038Z,0
2016-11-28T00:30:20.048Z,0
2016-11-28T00:31:20.062Z,0
2016-11-28T00:32:20.075Z,0
2016-11-28T00:33:20.093Z,0
2016-11-28T00:34:20.101Z,0
2016-11-28T00:35:20.188Z,0
2016-11-28T00:36:20.144Z,0
2016-11-28T00:37:20.151Z,0
2016-11-28T00:38:20.171Z,0
2016-11-28T00:39:20.181Z,0
2016-11-28T00:40:20.202Z,0
2016-11-28T00:41:20.216Z,0
2016-11-28T00:42:20.237Z,0
2016-11-28T00:43:35.167Z,0
2016-11-28T00:44:35.183Z,0
2016-11-28T00:46:20.288Z,0
2016-11-28T00:47:20.307Z,0
2016-11-28T00:48:20.316Z,0
2016-11-28T00:49:20.335Z,0
2016-11-28T00:50:20.348Z,0
2016-11-28T00:51:20.375Z,0
2016-11-28T00:52:20.382Z,0
2016-11-28T00:53:20.398Z,0
2016-11-28T00:54:20.418Z,0
2016-11-28T00:55:20.426Z,0
2016-11-28T00:56:35.367Z,0
2016-11-28T00:57:20.455Z,0
2016-11-28T00:58:20.618Z,0
2016-11-28T00:59:35.407Z,0
2016-11-28T01:00:20.500Z,0
2016-11-28T01:01:20.512Z,0
2016-11-28T01:02:20.532Z,0
2016-11-28T01:03:20.547Z,0
2016-11-28T01:04:20.571Z,0
2016-11-28T01:05:20.573Z,0
2016-11-28T01:06:20.592Z,0
2016-11-28T01:08:20.626Z,0
2016-11-28T01:09:20.635Z,0
2016-11-28T01:10:20.653Z,0
2016-11-28T01:11:20.662Z,0
2016-11-28T01:12:20.686Z,0
2016-11-28T01:13:35.617Z,0
2016-11-28T01:14:20.708Z,0
2016-11-28T01:15:35.648Z,0
2016-11-28T01:16:20.736Z,0
2016-11-28T01:17:20.755Z,0
2016-11-28T01:18:20.771Z,0
2016-11-28T01:19:20.786Z,0
2016-11-28T01:20:20.805Z,0
2016-11-28T01:21:20.820Z,0
2016-11-28T01:22:20.866Z,0
2016-11-28T01:23:20.841Z,0
2016-11-28T01:24:20.862Z,0
2016-11-28T01:25:21.180Z,0
2016-11-28T01:26:20.900Z,0
2016-11-28T01:27:20.897Z,0
2016-11-28T01:28:20.921Z,0
2016-11-28T01:30:35.871Z,0
2016-11-28T01:31:35.883Z,0
2016-11-28T01:32:20.980Z,0
2016-11-28T01:33:35.914Z,0
2016-11-28T01:34:21.010Z,0
2016-11-28T01:35:21.027Z,0
2016-11-28T01:36:21.044Z,0
2016-11-28T01:37:21.054Z,0
2016-11-28T01:38:21.071Z,0
2016-11-28T01:39:21.087Z,0
2016-11-28T01:40:21.101Z,0
2016-11-28T01:41:21.114Z,0
2016-11-28T01:42:21.127Z,0
2016-11-28T01:43:21.141Z,0
2016-11-28T01:44:21.162Z,0
2016-11-28T01:45:21.480Z,0
2016-11-28T01:46:21.193Z,0
2016-11-28T01:47:21.203Z,0
2016-11-28T01:49:21.237Z,0
2016-11-28T01:50:21.250Z,0
2016-11-28T01:51:21.265Z,0
2016-11-28T01:52:21.278Z,0
2016-11-28T01:53:21.616Z,0
2016-11-28T01:54:21.310Z,0
2016-11-28T01:55:21.314Z,0
2016-11-28T01:56:21.331Z,0
2016-11-28T01:57:21.350Z,0
2016-11-28T01:58:21.370Z,0
2016-11-28T01:59:21.382Z,0
2016-11-28T02:00:21.404Z,0
2016-11-28T02:01:36.336Z,0
2016-11-28T02:02:36.351Z,0
2016-11-28T02:03:21.689Z,0
2016-11-28T02:04:21.455Z,0
2016-11-28T02:05:36.389Z,0
2016-11-28T02:06:21.487Z,0
2016-11-28T02:07:21.502Z,0
2016-11-28T02:09:21.528Z,0
2016-11-28T02:10:21.548Z,0
2016-11-28T02:11:21.557Z,0
2016-11-28T02:13:36.567Z,0
2016-11-28T02:14:21.598Z,0
2016-11-28T02:15:21.620Z,0
2016-11-28T02:16:21.637Z,0
2016-11-28T02:17:21.646Z,0
2016-11-28T02:19:21.677Z,0
2016-11-28T02:20:21.734Z,0
2016-11-28T02:21:22.013Z,0
2016-11-28T02:22:21.719Z,0
2016-11-28T02:23:21.736Z,0
2016-11-28T02:24:21.799Z,0
2016-11-28T02:25:22.077Z,0
2016-11-28T02:27:21.793Z,0
2016-11-28T02:28:21.810Z,0
2016-11-28T02:29:21.823Z,0
2016-11-28T02:30:36.764Z,0
2016-11-28T02:31:21.855Z,0
2016-11-28T02:32:36.797Z,0
2016-11-28T02:33:21.895Z,0
2016-11-28T02:34:36.825Z,0
2016-11-28T02:35:21.914Z,0
2016-11-28T02:36:21.929Z,0
2016-11-28T02:37:21.945Z,0
2016-11-28T02:38:21.958Z,0
2016-11-28T02:39:21.973Z,0
2016-11-28T02:40:21.996Z,0
2016-11-28T02:42:22.016Z,0
2016-11-28T02:43:22.037Z,0
2016-11-28T02:45:22.055Z,0
2016-11-28T02:47:22.091Z,0
2016-11-28T02:48:22.104Z,0
2016-11-28T02:49:22.127Z,0
2016-11-28T02:50:37.053Z,0
2016-11-28T02:51:22.150Z,0
2016-11-28T02:53:22.177Z,0
2016-11-28T02:54:22.205Z,0
2016-11-28T02:55:22.205Z,0
2016-11-28T02:56:22.214Z,0
2016-11-28T02:58:22.254Z,0
2016-11-28T02:59:22.275Z,0
2016-11-28T03:00:22.288Z,0
2016-11-28T03:01:22.297Z,0
2016-11-28T03:02:22.334Z,0
2016-11-28T03:03:22.332Z,0
2016-11-28T03:04:22.343Z,0
2016-11-28T03:05:37.282Z,0
2016-11-28T03:06:22.402Z,0
2016-11-28T03:07:22.390Z,0
2016-11-28T03:08:22.404Z,0
2016-11-28T03:09:22.411Z,0
2016-11-28T03:10:22.436Z,0
2016-11-28T03:11:22.439Z,0
2016-11-28T03:12:22.757Z,0
2016-11-28T03:13:22.501Z,0
2016-11-28T03:14:22.499Z,0
2016-11-28T03:16:37.491Z,0
2016-11-28T03:17:22.585Z,0
2016-11-28T03:18:22.541Z,0
2016-11-28T03:19:22.554Z,0
2016-11-28T03:20:37.498Z,0
2016-11-28T03:21:22.586Z,0
2016-11-28T03:22:22.618Z,0
2016-11-28T03:23:37.545Z,0
2016-11-28T03:24:22.645Z,0
2016-11-28T03:25:22.651Z,0
2016-11-28T03:26:22.973Z,0
2016-11-28T03:27:22.681Z,0
2016-11-28T03:28:22.695Z,0
2016-11-28T03:29:22.707Z,0
2016-11-28T03:30:22.714Z,0
2016-11-28T03:31:22.738Z,0
2016-11-28T03:32:22.749Z,0
2016-11-28T03:33:22.821Z,0
2016-11-28T03:34:22.780Z,0
2016-11-28T03:36:22.814Z,0
2016-11-28T03:37:37.752Z,0
2016-11-28T03:38:22.847Z,0
2016-11-28T03:39:22.852Z,0
2016-11-28T03:40:22.867Z,0
2016-11-28T03:41:22.886Z,0
2016-11-28T03:42:37.816Z,0
2016-11-28T03:43:22.914Z,0
2016-11-28T03:44:22.929Z,0
2016-11-28T03:45:22.951Z,0
2016-11-28T03:46:22.954Z,0
2016-11-28T03:47:22.970Z,0
2016-11-28T03:48:37.915Z,0
2016-11-28T03:49:23.002Z,0
2016-11-28T03:50:37.940Z,0
2016-11-28T03:51:37.956Z,0
2016-11-28T03:52:23.045Z,0
2016-11-28T03:53:37.989Z,0
2016-11-28T03:54:37.993Z,0
2016-11-28T03:55:38.046Z,0
2016-11-28T03:56:38.021Z,0
2016-11-28T03:57:23.124Z,0
2016-11-28T03:58:23.134Z,0
2016-11-28T03:59:23.144Z,0
2016-11-28T04:00:23.158Z,0
2016-11-28T04:01:23.184Z,0
2016-11-28T04:02:23.184Z,0
2016-11-28T04:03:23.205Z,0
2016-11-28T04:04:23.218Z,0
2016-11-28T04:05:23.237Z,0
2016-11-28T04:06:23.247Z,0
2016-11-28T04:07:38.182Z,0
2016-11-28T04:08:23.278Z,0
2016-11-28T04:09:38.214Z,0
2016-11-28T04:10:23.301Z,0
2016-11-28T04:11:23.322Z,0
2016-11-28T04:12:23.333Z,0
2016-11-28T04:13:23.348Z,0
2016-11-28T04:14:23.369Z,0
2016-11-28T04:15:23.376Z,0
2016-11-28T04:16:23.396Z,0
2016-11-28T04:17:23.406Z,0
2016-11-28T04:19:38.362Z,0
2016-11-28T04:20:23.451Z,0
2016-11-28T04:21:23.467Z,0
2016-11-28T04:22:23.479Z,0
2016-11-28T04:23:23.500Z,0
2016-11-28T04:24:23.511Z,0
2016-11-28T04:25:38.448Z,0
2016-11-28T04:26:38.457Z,0
2016-11-28T04:28:23.569Z,0
2016-11-28T04:29:23.581Z,0
2016-11-28T04:31:23.617Z,0
2016-11-28T04:32:23.632Z,0
2016-11-28T04:33:23.639Z,0
2016-11-28T04:34:23.653Z,0
2016-11-28T04:35:23.664Z,0
2016-11-28T04:37:23.694Z,0
2016-11-28T04:38:23.714Z,0
2016-11-28T04:40:38.659Z,0
2016-11-28T04:41:38.676Z,0
2016-11-28T04:42:38.740Z,0
2016-11-28T04:43:23.791Z,0
2016-11-28T04:44:23.797Z,0
2016-11-28T04:45:23.823Z,0
2016-11-28T04:46:23.822Z,0
2016-11-28T04:47:23.846Z,0
2016-11-28T04:48:23.897Z,0
2016-11-28T04:49:23.875Z,0
2016-11-28T04:50:23.888Z,0
2016-11-28T04:51:23.898Z,0
2016-11-28T04:52:38.839Z,0
2016-11-28T04:53:23.927Z,0
2016-11-28T04:54:23.957Z,0
2016-11-28T04:55:23.961Z,0
2016-11-28T04:56:23.968Z,0
2016-11-28T04:57:23.986Z,0
2016-11-28T04:58:38.919Z,0
2016-11-28T04:59:24.009Z,0
2016-11-28T05:00:24.047Z,0
2016-11-28T05:01:24.044Z,0
2016-11-28T05:02:24.048Z,0
2016-11-28T05:03:24.077Z,0
2016-11-28T05:04:24.392Z,0
2016-11-28T05:05:24.108Z,0
2016-11-28T05:06:24.115Z,0
2016-11-28T05:07:24.124Z,0
2016-11-28T05:08:24.143Z,0
2016-11-28T05:10:24.169Z,0
2016-11-28T05:11:24.185Z,0
2016-11-28T05:13:39.183Z,0
2016-11-28T05:14:24.233Z,0
2016-11-28T05:15:24.243Z,0
2016-11-28T05:16:24.261Z,0
2016-11-28T05:17:24.273Z,0
2016-11-28T05:18:24.289Z,0
2016-11-28T05:19:24.300Z,0
2016-11-28T05:20:24.317Z,0
2016-11-28T05:21:24.335Z,0
2016-11-28T05:23:24.352Z,0
2016-11-28T05:24:24.373Z,0
2016-11-28T05:25:24.395Z,0
2016-11-28T05:27:24.422Z,0
2016-11-28T05:28:39.356Z,0
2016-11-28T05:29:24.447Z,0
2016-11-28T05:31:24.474Z,0
2016-11-28T05:32:39.405Z,0
2016-11-28T05:33:24.510Z,0
2016-11-28T05:34:24.516Z,0
2016-11-28T05:35:24.533Z,0
2016-11-28T05:36:39.526Z,0
2016-11-28T05:37:24.563Z,0
2016-11-28T05:38:24.572Z,0
2016-11-28T05:40:24.614Z,0
2016-11-28T05:41:24.616Z,0
2016-11-28T05:42:24.623Z,0
2016-11-28T05:43:24.644Z,0
2016-11-28T05:44:39.584Z,0
2016-11-28T05:45:24.678Z,0
2016-11-28T05:46:24.688Z,0
2016-11-28T05:47:24.698Z,0
2016-11-28T05:48:24.720Z,0
2016-11-28T05:49:24.755Z,0
2016-11-28T05:50:24.741Z,0
2016-11-28T05:51:24.762Z,0
2016-11-28T05:52:24.771Z,0
2016-11-28T05:53:24.783Z,0
2016-11-28T05:54:24.839Z,0
2016-11-28T05:55:24.867Z,0
2016-11-28T05:56:24.833Z,0
2016-11-28T05:57:39.771Z,0
2016-11-28T05:59:24.875Z,0
2016-11-28T06:00:39.812Z,0
2016-11-28T06:01:24.909Z,0
2016-11-28T06:02:24.918Z,0
2016-11-28T06:03:24.931Z,0
2016-11-28T06:04:24.945Z,0
2016-11-28T06:05:24.960Z,0
2016-11-28T06:06:24.970Z,0
2016-11-28T06:07:25.297Z,0
2016-11-28T06:09:25.020Z,0
2016-11-28T06:10:25.038Z,0
2016-11-28T06:14:40.013Z,4
2016-11-28T06:15:40.066Z,4
2016-11-28T06:16:40.041Z,4
2016-11-28T06:17:25.133Z,8
2016-11-28T06:18:25.148Z,8
2016-11-28T06:19:25.164Z,8
2016-11-28T06:20:25.176Z,12
2016-11-28T06:21:25.192Z,12
2016-11-28T06:22:25.206Z,12
2016-11-28T06:23:25.262Z,16
2016-11-28T06:24:25.227Z,20
2016-11-28T06:25:25.241Z,28
2016-11-28T06:26:40.189Z,28
2016-11-28T06:27:25.279Z,36
2016-11-28T06:28:40.263Z,40
2016-11-28T06:29:25.300Z,44
2016-11-28T06:30:25.328Z,48
2016-11-28T06:31:25.333Z,56
2016-11-28T06:32:25.346Z,64
2016-11-28T06:33:25.370Z,72
2016-11-28T06:34:25.377Z,84
2016-11-28T06:35:25.395Z,88
2016-11-28T06:36:25.402Z,100
2016-11-28T06:37:25.413Z,108
2016-11-28T06:38:25.433Z,116
2016-11-28T06:39:25.454Z,128
2016-11-28T06:41:25.471Z,148
2016-11-28T06:42:25.489Z,160
2016-11-28T06:43:25.501Z,176
2016-11-28T06:44:25.519Z,192
2016-11-28T06:45:25.538Z,208
2016-11-28T06:46:25.544Z,224
2016-11-28T06:47:40.479Z,248
2016-11-28T06:48:25.569Z,260
2016-11-28T06:49:25.640Z,280
2016-11-28T06:50:25.601Z,300
2016-11-28T06:51:25.624Z,320
2016-11-28T06:52:25.633Z,336
2016-11-28T06:53:25.648Z,360
2016-11-28T06:54:25.659Z,380
2016-11-28T06:55:25.718Z,408
2016-11-28T06:56:25.887Z,444
2016-11-28T06:57:25.746Z,484
2016-11-28T06:58:40.645Z,520
2016-11-28T06:59:25.731Z,536
2016-11-28T07:00:40.668Z,564
2016-11-28T07:01:25.758Z,580
2016-11-28T07:02:25.807Z,596
2016-11-28T07:03:40.709Z,620
2016-11-28T07:04:25.805Z,644
2016-11-28T07:05:25.816Z,664
2016-11-28T07:06:25.832Z,684
2016-11-28T07:07:25.846Z,692
2016-11-28T07:08:25.859Z,688
2016-11-28T07:09:25.872Z,680
2016-11-28T07:10:25.888Z,668
2016-11-28T07:11:25.905Z,656
2016-11-28T07:12:25.928Z,648
2016-11-28T07:13:25.928Z,624
2016-11-28T07:14:25.952Z,608
2016-11-28T07:15:25.963Z,596
2016-11-28T07:16:25.976Z,600
2016-11-28T07:18:26.005Z,696
2016-11-28T07:19:40.938Z,800
2016-11-28T07:20:26.036Z,860
2016-11-28T07:21:26.047Z,940
2016-11-28T07:22:26.113Z,992
2016-11-28T07:23:26.072Z,1020
2016-11-28T07:24:26.095Z,1060
2016-11-28T07:25:26.104Z,1124
2016-11-28T07:26:26.122Z,1176
2016-11-28T07:27:26.132Z,1212
2016-11-28T07:28:26.152Z,1248
2016-11-28T07:30:26.175Z,1352
2016-11-28T07:31:41.116Z,1344
2016-11-28T07:32:26.212Z,1368
2016-11-28T07:33:26.217Z,1432
2016-11-28T07:34:41.154Z,1536
2016-11-28T07:35:41.170Z,1628
2016-11-28T07:36:26.267Z,1700
2016-11-28T07:37:26.284Z,1772
2016-11-28T07:38:26.596Z,1808
2016-11-28T07:39:26.306Z,1828
2016-11-28T07:40:26.315Z,1852
2016-11-28T07:41:26.330Z,1848
2016-11-28T07:42:26.346Z,1856
2016-11-28T07:43:26.365Z,1896
2016-11-28T07:44:41.309Z,2000
2016-11-28T07:45:26.393Z,2068
2016-11-28T07:46:26.406Z,2096
2016-11-28T07:47:26.480Z,2068
2016-11-28T07:48:26.443Z,2148
2016-11-28T07:50:41.386Z,2500
2016-11-28T07:51:26.485Z,2544
2016-11-28T07:52:41.416Z,2596
2016-11-28T07:53:26.516Z,2612
2016-11-28T07:54:26.529Z,2584
2016-11-28T07:55:26.543Z,2568
2016-11-28T07:56:26.555Z,2536
2016-11-28T07:57:26.577Z,2548
2016-11-28T07:58:26.586Z,2504
2016-11-28T07:59:26.597Z,2452
2016-11-28T08:00:26.609Z,2360
2016-11-28T08:01:26.627Z,2284
2016-11-28T08:02:26.638Z,2268
2016-11-28T08:03:41.583Z,2420
2016-11-28T08:04:26.677Z,2532
2016-11-28T08:05:26.694Z,2632
2016-11-28T08:06:26.710Z,2684
2016-11-28T08:07:26.723Z,2680
2016-11-28T08:08:26.776Z,2648
2016-11-28T08:09:26.755Z,2660
2016-11-28T08:10:26.764Z,2772
2016-11-28T08:11:26.786Z,2812
2016-11-28T08:12:41.722Z,2744
2016-11-28T08:13:26.812Z,2568
2016-11-28T08:14:26.819Z,2356
2016-11-28T08:15:26.834Z,2192
2016-11-28T08:16:26.901Z,2076
2016-11-28T08:18:26.884Z,2040
2016-11-28T08:19:41.823Z,2220
2016-11-28T08:20:41.833Z,2448
2016-11-28T08:21:41.849Z,2800
2016-11-28T08:22:41.861Z,3144
2016-11-28T08:23:26.997Z,3320
2016-11-28T08:24:26.982Z,3328
2016-11-28T08:25:26.989Z,3172
2016-11-28T08:26:26.999Z,3148
2016-11-28T08:27:27.022Z,3320
2016-11-28T08:28:27.029Z,3516
2016-11-28T08:30:27.058Z,3792
2016-11-28T08:31:27.076Z,3800
2016-11-28T08:32:27.094Z,3736
2016-11-28T08:33:27.108Z,3596
2016-11-28T08:35:27.135Z,3280
2016-11-28T08:36:27.153Z,3076
2016-11-28T08:37:27.164Z,2920
2016-11-28T08:38:42.109Z,2932
2016-11-28T08:39:42.115Z,3112
2016-11-28T08:40:27.218Z,3172
2016-11-28T08:41:27.230Z,3064
2016-11-28T08:42:27.244Z,3516
2016-11-28T08:43:27.255Z,3352
2016-11-28T08:44:27.285Z,4864
2016-11-28T08:46:27.302Z,3812
2016-11-28T08:47:27.319Z,3592
2016-11-28T08:48:27.331Z,3436
2016-11-28T08:49:27.356Z,4144
2016-11-28T08:50:27.365Z,3768
2016-11-28T08:51:27.373Z,3900
2016-11-28T08:52:27.714Z,3960
2016-11-28T08:53:27.413Z,4120
2016-11-28T08:55:27.437Z,4760
2016-11-28T08:56:27.458Z,4508
2016-11-28T08:57:27.467Z,4428
2016-11-28T08:58:27.493Z,4292
2016-11-28T08:59:27.499Z,4136
2016-11-28T09:00:27.518Z,4036
2016-11-28T09:01:27.539Z,4200
2016-11-28T09:02:27.597Z,4396
2016-11-28T09:03:27.560Z,4552
2016-11-28T09:04:27.575Z,4660
2016-11-28T09:05:27.594Z,4884
2016-11-28T09:06:27.609Z,4740
2016-11-28T09:07:42.546Z,4796
2016-11-28T09:08:27.636Z,5212
2016-11-28T09:09:27.655Z,4488
2016-11-28T09:12:27.702Z,5564
2016-11-28T09:13:27.714Z,5484
2016-11-28T09:14:42.679Z,3852
2016-11-28T09:15:27.745Z,4316
2016-11-28T09:16:27.763Z,5320
2016-11-28T09:18:42.866Z,3584
2016-11-28T09:19:27.808Z,3940
2016-11-28T09:20:27.825Z,3896
2016-11-28T09:21:27.837Z,4056
2016-11-28T09:22:42.780Z,5336
2016-11-28T09:23:27.868Z,5144
2016-11-28T09:24:42.806Z,5208
2016-11-28T09:25:42.820Z,5124
2016-11-28T09:26:28.213Z,4804
2016-11-28T09:27:42.849Z,5064
2016-11-28T09:28:27.944Z,5040
2016-11-28T09:29:27.959Z,5016
2016-11-28T09:30:27.978Z,5048
2016-11-28T09:31:27.991Z,5124
2016-11-28T09:32:28.004Z,5172
2016-11-28T09:34:28.035Z,5320
2016-11-28T09:35:28.052Z,5176
2016-11-28T09:36:28.063Z,5528
2016-11-28T09:37:28.085Z,5592
2016-11-28T09:38:28.098Z,5648
2016-11-28T09:39:28.115Z,5604
2016-11-28T09:40:28.141Z,5580
2016-11-28T09:41:43.066Z,5560
2016-11-28T09:42:28.162Z,4300
2016-11-28T09:43:28.174Z,3396
2016-11-28T09:44:28.191Z,5040
2016-11-28T09:45:28.204Z,4088
2016-11-28T09:46:28.225Z,5396
2016-11-28T09:48:28.252Z,4744
2016-11-28T09:49:28.267Z,3808
2016-11-28T09:50:28.345Z,3160
2016-11-28T09:51:28.301Z,2956
2016-11-28T09:52:28.325Z,3440
2016-11-28T09:53:28.336Z,4392
2016-11-28T09:54:28.346Z,3704
2016-11-28T09:55:43.289Z,4024
2016-11-28T09:56:28.430Z,3880
2016-11-28T09:57:43.311Z,3680
2016-11-28T09:58:28.407Z,3648
2016-11-28T10:00:28.436Z,3468
2016-11-28T10:01:28.466Z,3384
2016-11-28T10:02:28.475Z,3308
2016-11-28T10:03:28.490Z,3236
2016-11-28T10:05:28.519Z,3132
2016-11-28T10:06:28.538Z,3084
2016-11-28T10:07:28.549Z,3060
2016-11-28T10:08:28.559Z,3044
2016-11-28T10:09:28.582Z,3060
2016-11-28T10:10:43.522Z,3172
2016-11-28T10:11:28.660Z,3272
2016-11-28T10:12:43.551Z,3464
2016-11-28T10:13:43.566Z,3692
2016-11-28T10:15:28.677Z,4192
2016-11-28T10:17:28.706Z,4540
2016-11-28T10:18:28.724Z,4684
2016-11-28T10:19:28.736Z,4488
2016-11-28T10:20:28.752Z,4468
2016-11-28T10:21:28.771Z,3972
2016-11-28T10:22:28.807Z,3736
2016-11-28T10:23:28.804Z,3516
2016-11-28T10:24:28.817Z,3272
2016-11-28T10:25:28.872Z,3080
2016-11-28T10:26:28.846Z,2972
2016-11-28T10:27:28.872Z,2936
2016-11-28T10:28:28.880Z,2912
2016-11-28T10:29:43.821Z,2876
2016-11-28T10:30:28.916Z,2940
2016-11-28T10:31:28.931Z,2836
2016-11-28T10:32:28.948Z,2748
2016-11-28T10:34:28.970Z,3280
2016-11-28T10:35:28.992Z,2768
2016-11-28T10:36:29.004Z,3316
2016-11-28T10:37:29.024Z,2784
2016-11-28T10:39:29.050Z,3020
2016-11-28T10:40:29.074Z,3096
2016-11-28T10:41:29.087Z,3056
2016-11-28T10:42:29.099Z,2904
2016-11-28T10:43:44.041Z,3264
2016-11-28T10:44:44.056Z,3288
2016-11-28T10:45:44.067Z,3312
2016-11-28T10:46:29.165Z,3336
2016-11-28T10:47:29.213Z,3372
2016-11-28T10:48:29.203Z,3300
2016-11-28T10:50:29.236Z,3532
2016-11-28T10:51:29.263Z,3608
2016-11-28T10:53:29.281Z,3572
2016-11-28T10:54:29.305Z,3588
2016-11-28T10:55:29.309Z,3616
2016-11-28T10:56:29.333Z,3572
2016-11-28T10:57:29.339Z,3532
2016-11-28T10:58:44.278Z,3316
2016-11-28T10:59:29.370Z,2904
2016-11-28T11:00:44.309Z,2896
2016-11-28T11:01:44.325Z,3108
2016-11-28T11:02:44.642Z,3168
2016-11-28T11:04:29.762Z,3196
2016-11-28T11:05:29.465Z,3548
2016-11-28T11:06:29.484Z,3480
2016-11-28T11:07:29.501Z,3440
2016-11-28T11:08:29.516Z,3416
2016-11-28T11:09:29.534Z,3388
2016-11-28T11:10:29.555Z,3380
2016-11-28T11:11:29.569Z,3364
2016-11-28T11:12:29.580Z,3364
2016-11-28T11:13:29.590Z,3368
2016-11-28T11:14:29.609Z,3388
2016-11-28T11:15:29.634Z,3416
2016-11-28T11:16:29.654Z,3480
2016-11-28T11:17:29.669Z,3600
2016-11-28T11:18:29.681Z,3716
2016-11-28T11:19:29.691Z,3900
2016-11-28T11:20:29.712Z,4040
2016-11-28T11:21:29.729Z,4156
2016-11-28T11:22:29.755Z,4232
2016-11-28T11:23:29.767Z,4264
2016-11-28T11:24:29.777Z,4240
2016-11-28T11:25:44.721Z,4220
2016-11-28T11:26:29.811Z,4196
2016-11-28T11:27:29.825Z,4212
2016-11-28T11:28:44.767Z,4328
2016-11-28T11:29:44.784Z,3668
2016-11-28T11:30:29.879Z,3636
2016-11-28T11:31:29.889Z,3924
2016-11-28T11:33:29.929Z,4728
2016-11-28T11:34:29.937Z,4676
2016-11-28T11:35:29.956Z,3756
2016-11-28T11:36:29.981Z,4372
2016-11-28T11:37:29.995Z,3888
2016-11-28T11:39:30.019Z,3476
2016-11-28T11:40:30.037Z,3708
2016-11-28T11:41:30.102Z,3836
2016-11-28T11:43:30.093Z,3692
2016-11-28T11:44:30.108Z,3436
2016-11-28T11:45:30.123Z,4200
2016-11-28T11:46:30.145Z,3368
2016-11-28T11:49:45.110Z,4004
2016-11-28T11:50:30.213Z,3776
2016-11-28T11:51:30.218Z,3088
2016-11-28T11:52:30.248Z,3456
2016-11-28T11:53:30.553Z,3896
2016-11-28T11:54:30.273Z,4000
2016-11-28T11:55:30.289Z,3732
2016-11-28T11:56:30.304Z,3332
2016-11-28T11:57:30.329Z,3592
2016-11-28T11:58:30.343Z,3868
2016-11-28T11:59:30.358Z,3344
2016-11-28T12:00:30.370Z,3720
2016-11-28T12:01:30.392Z,2920
2016-11-28T12:02:45.332Z,3964
2016-11-28T12:03:30.431Z,3896
2016-11-28T12:04:45.366Z,2800
2016-11-28T12:06:30.484Z,2692
2016-11-28T12:07:30.495Z,3724
2016-11-28T12:08:30.550Z,3624
2016-11-28T12:09:30.518Z,3480
2016-11-28T12:10:30.542Z,3484
2016-11-28T12:11:30.559Z,3464
2016-11-28T12:12:30.575Z,2688
2016-11-28T12:13:30.598Z,2352
2016-11-28T12:14:30.914Z,2368
2016-11-28T12:15:30.625Z,2368
2016-11-28T12:16:30.644Z,2416
2016-11-28T12:17:30.665Z,2788
2016-11-28T12:18:30.679Z,2740
2016-11-28T12:19:30.694Z,2992
2016-11-28T12:20:45.630Z,3520
2016-11-28T12:21:30.726Z,3520
2016-11-28T12:22:30.739Z,3476
2016-11-28T12:23:30.806Z,3444
2016-11-28T12:24:30.775Z,2776
2016-11-28T12:25:30.789Z,3144
2016-11-28T12:26:30.806Z,3504
2016-11-28T12:28:30.849Z,3248
2016-11-28T12:29:30.854Z,3452
2016-11-28T12:30:37.611Z,3432
2016-11-28T12:31:45.817Z,3380
2016-11-28T12:32:30.966Z,3396
2016-11-28T12:33:30.932Z,3316
2016-11-28T12:34:30.937Z,3352
2016-11-28T12:35:45.888Z,3300
2016-11-28T12:36:30.974Z,3260
2016-11-28T12:37:45.914Z,3332
2016-11-28T12:38:31.007Z,3284
2016-11-28T12:39:31.028Z,3332
2016-11-28T12:40:31.049Z,3340
2016-11-28T12:41:31.061Z,3328
2016-11-28T12:42:31.082Z,3328
2016-11-28T12:43:31.095Z,3324
2016-11-28T12:44:31.108Z,3316
2016-11-28T12:45:31.122Z,3312
2016-11-28T12:46:31.148Z,3264
2016-11-28T12:47:31.159Z,3264
2016-11-28T12:48:31.206Z,3264
2016-11-28T12:49:31.247Z,3292
2016-11-28T12:50:31.209Z,3288
2016-11-28T12:51:31.230Z,3296
2016-11-28T12:52:31.240Z,3284
2016-11-28T12:53:31.260Z,3268
2016-11-28T12:55:31.293Z,3236
2016-11-28T12:56:31.305Z,3136
2016-11-28T12:57:31.331Z,2520
2016-11-28T12:58:31.339Z,3128
2016-11-28T12:59:31.361Z,3220
2016-11-28T13:01:31.391Z,3184
2016-11-28T13:02:31.414Z,3192
2016-11-28T13:04:31.441Z,3180
2016-11-28T13:05:31.458Z,3016
2016-11-28T13:06:31.477Z,2788
2016-11-28T13:07:46.418Z,2468
2016-11-28T13:08:46.428Z,3184
2016-11-28T13:09:31.522Z,3252
2016-11-28T13:10:31.545Z,3280
2016-11-28T13:11:31.562Z,3280
2016-11-28T13:12:31.572Z,3284
2016-11-28T13:13:31.588Z,3348
2016-11-28T13:15:31.620Z,3416
2016-11-28T13:16:31.646Z,3104
2016-11-28T13:17:31.690Z,2728
2016-11-28T13:18:31.672Z,3044
2016-11-28T13:19:31.691Z,2784
2016-11-28T13:20:46.684Z,2676
2016-11-28T13:21:31.721Z,3568
2016-11-28T13:22:31.744Z,3172
2016-11-28T13:23:46.676Z,2388
2016-11-28T13:24:31.779Z,2320
2016-11-28T13:25:31.798Z,2252
2016-11-28T13:26:31.811Z,2136
2016-11-28T13:27:31.825Z,2056
2016-11-28T13:28:31.840Z,2000
2016-11-28T13:29:31.859Z,1948
2016-11-28T13:30:31.872Z,1908
2016-11-28T13:31:31.892Z,1904
2016-11-28T13:32:31.902Z,1916
2016-11-28T13:33:31.926Z,1944
2016-11-28T13:34:31.941Z,1968
2016-11-28T13:35:32.257Z,1996
2016-11-28T13:36:31.977Z,1976
2016-11-28T13:37:31.986Z,1980
2016-11-28T13:38:32.008Z,1932
2016-11-28T13:39:46.949Z,1872
2016-11-28T13:40:32.100Z,1836
2016-11-28T13:41:32.108Z,1788
2016-11-28T13:42:32.074Z,1732
2016-11-28T13:43:32.089Z,1664
2016-11-28T13:44:32.104Z,1604
2016-11-28T13:45:32.125Z,1536
2016-11-28T13:46:32.177Z,1492
2016-11-28T13:47:32.149Z,1464
2016-11-28T13:49:32.193Z,1332
2016-11-28T13:50:32.205Z,1220
2016-11-28T13:51:47.149Z,1140
2016-11-28T13:52:32.238Z,1120
2016-11-28T13:53:32.260Z,1084
2016-11-28T13:54:32.276Z,1040
2016-11-28T13:55:47.214Z,960
2016-11-28T13:56:32.304Z,900
2016-11-28T13:57:32.325Z,844
2016-11-28T13:58:32.338Z,796
2016-11-28T13:59:32.358Z,768
2016-11-28T14:00:32.371Z,764
2016-11-28T14:01:32.396Z,776
2016-11-28T14:02:32.708Z,844
2016-11-28T14:03:32.423Z,940
2016-11-28T14:04:32.443Z,1044
2016-11-28T14:05:32.497Z,1112
2016-11-28T14:06:32.472Z,1168
2016-11-28T14:07:32.491Z,1204
2016-11-28T14:08:47.460Z,1228
2016-11-28T14:09:32.517Z,1232
2016-11-28T14:10:47.463Z,1232
2016-11-28T14:11:32.559Z,1236
2016-11-28T14:12:47.492Z,1240
2016-11-28T14:13:32.584Z,1236
2016-11-28T14:14:32.601Z,1224
2016-11-28T14:15:32.616Z,1208
2016-11-28T14:16:32.637Z,1188
2016-11-28T14:17:32.647Z,1172
2016-11-28T14:18:32.671Z,1152
2016-11-28T14:19:32.693Z,1124
2016-11-28T14:20:32.704Z,1096
2016-11-28T14:21:32.717Z,1068
2016-11-28T14:22:47.660Z,1040
2016-11-28T14:23:32.761Z,1020
2016-11-28T14:24:32.776Z,1004
2016-11-28T14:25:33.250Z,988
2016-11-28T14:26:32.802Z,968
2016-11-28T14:27:32.822Z,948
2016-11-28T14:28:47.751Z,924
2016-11-28T14:29:32.847Z,904
2016-11-28T14:30:32.865Z,884
2016-11-28T14:31:32.879Z,860
2016-11-28T14:32:34.456Z,836
2016-11-28T14:33:32.913Z,816
2016-11-28T14:34:32.928Z,792
2016-11-28T14:35:32.948Z,768
2016-11-28T14:36:32.967Z,740
2016-11-28T14:37:32.979Z,712
2016-11-28T14:38:47.918Z,680
2016-11-28T14:39:33.015Z,660
2016-11-28T14:40:33.029Z,636
2016-11-28T14:41:33.335Z,608
2016-11-28T14:43:33.076Z,552
2016-11-28T14:44:33.086Z,528
2016-11-28T14:45:33.111Z,500
2016-11-28T14:46:33.123Z,476
2016-11-28T14:47:33.337Z,448
2016-11-28T14:48:33.163Z,424
2016-11-28T14:50:33.228Z,372
2016-11-28T14:51:33.197Z,348
2016-11-28T14:52:33.217Z,328
2016-11-28T14:53:33.228Z,304
2016-11-28T14:54:33.252Z,280
2016-11-28T14:55:33.263Z,264
2016-11-28T14:56:33.288Z,244
2016-11-28T14:57:48.218Z,220
2016-11-28T14:59:48.247Z,184
2016-11-28T15:00:33.343Z,168
2016-11-28T15:01:33.361Z,156
2016-11-28T15:02:33.379Z,140
2016-11-28T15:03:33.387Z,128
2016-11-28T15:04:33.406Z,112
2016-11-28T15:05:33.420Z,104
2016-11-28T15:06:33.442Z,92
2016-11-28T15:07:33.461Z,84
2016-11-28T15:08:33.500Z,72
2016-11-28T15:09:33.486Z,64
2016-11-28T15:10:33.507Z,56
2016-11-28T15:11:48.740Z,48
2016-11-28T15:12:33.531Z,40